sensor_id;sensor_type;location;lat;lon;timestamp;pressure;altitude;pressure_sealevel;temperature;humidity
77517;BME280;68414;53.946;27.634;2024-01-07T00:00:55;99478.765625;;;-12.570000;62.023438
77517;BME280;68414;53.946;27.634;2024-01-07T00:01:55;99476.859375;;;-12.550000;61.879883
77517;BME280;68414;53.946;27.634;2024-01-07T00:02:55;99476.578125;;;-12.510000;61.767578
77517;BME280;68414;53.946;27.634;2024-01-07T00:03:55;99479.835938;;;-12.490000;61.802734
77517;BME280;68414;53.946;27.634;2024-01-07T00:04:55;99483.234375;;;-12.490000;61.791992
77517;BME280;68414;53.946;27.634;2024-01-07T00:05:55;99485.515625;;;-12.460000;61.787109
77517;BME280;68414;53.946;27.634;2024-01-07T00:06:55;99485.312500;;;-12.620000;61.551758
77517;BME280;68414;53.946;27.634;2024-01-07T00:07:55;99484.796875;;;-12.750000;62.194336
77517;BME280;68414;53.946;27.634;2024-01-07T00:08:55;99485.343750;;;-12.720000;62.538086
77517;BME280;68414;53.946;27.634;2024-01-07T00:09:55;99485.062500;;;-12.690000;62.310547
77517;BME280;68414;53.946;27.634;2024-01-07T00:10:55;99479.609375;;;-12.660000;61.840820
77517;BME280;68414;53.946;27.634;2024-01-07T00:11:54;99485.875000;;;-12.680000;61.962891
77517;BME280;68414;53.946;27.634;2024-01-07T00:12:55;99490.656250;;;-12.730000;61.966797
77517;BME280;68414;53.946;27.634;2024-01-07T00:13:55;99483.843750;;;-12.740000;61.838867
77517;BME280;68414;53.946;27.634;2024-01-07T00:14:55;99491.750000;;;-12.760000;61.994141
77517;BME280;68414;53.946;27.634;2024-01-07T00:15:55;99491.046875;;;-12.680000;62.279297
77517;BME280;68414;53.946;27.634;2024-01-07T00:16:55;99493.781250;;;-12.700000;61.750977
77517;BME280;68414;53.946;27.634;2024-01-07T00:17:55;99490.234375;;;-12.690000;62.100586
77517;BME280;68414;53.946;27.634;2024-01-07T00:18:55;99495.125000;;;-12.660000;62.125000
77517;BME280;68414;53.946;27.634;2024-01-07T00:19:55;99499.351562;;;-12.650000;61.726562
77517;BME280;68414;53.946;27.634;2024-01-07T00:20:55;99494.171875;;;-12.650000;61.715820
77517;BME280;68414;53.946;27.634;2024-01-07T00:21:55;99498.390625;;;-12.640000;61.632812
77517;BME280;68414;53.946;27.634;2024-01-07T00:22:54;99492.546875;;;-12.660000;61.609375
77517;BME280;68414;53.946;27.634;2024-01-07T00:23:54;99493.218750;;;-12.640000;61.843750
77517;BME280;68414;53.946;27.634;2024-01-07T00:24:55;99500.703125;;;-12.610000;61.806641
77517;BME280;68414;53.946;27.634;2024-01-07T00:25:54;99497.437500;;;-12.630000;61.530273
77517;BME280;68414;53.946;27.634;2024-01-07T00:26:55;99500.585938;;;-12.690000;61.594727
77517;BME280;68414;53.946;27.634;2024-01-07T00:27:54;99500.718750;;;-12.700000;61.624023
77517;BME280;68414;53.946;27.634;2024-01-07T00:28:55;99499.484375;;;-12.660000;61.650391
77517;BME280;68414;53.946;27.634;2024-01-07T00:29:55;99499.625000;;;-12.680000;61.522461
77517;BME280;68414;53.946;27.634;2024-01-07T00:30:55;99497.046875;;;-12.680000;61.606445
77517;BME280;68414;53.946;27.634;2024-01-07T00:31:55;99495.406250;;;-12.690000;61.479492
77517;BME280;68414;53.946;27.634;2024-01-07T00:32:57;99497.320312;;;-12.710000;61.243164
77517;BME280;68414;53.946;27.634;2024-01-07T00:33:55;99504.125000;;;-12.700000;61.362305
77517;BME280;68414;53.946;27.634;2024-01-07T00:34:55;99506.992188;;;-12.730000;61.461914
77517;BME280;68414;53.946;27.634;2024-01-07T00:35:55;99506.312500;;;-12.750000;61.553711
77517;BME280;68414;53.946;27.634;2024-01-07T00:36:54;99499.507812;;;-12.760000;60.941406
77517;BME280;68414;53.946;27.634;2024-01-07T00:37:54;99509.039062;;;-12.760000;61.140625
77517;BME280;68414;53.946;27.634;2024-01-07T00:38:54;99510.859375;;;-12.870000;61.283203
77517;BME280;68414;53.946;27.634;2024-01-07T00:39:54;99507.171875;;;-12.840000;61.550781
77517;BME280;68414;53.946;27.634;2024-01-07T00:40:54;99508.500000;;;-12.800000;61.483398
77517;BME280;68414;53.946;27.634;2024-01-07T00:41:54;99508.218750;;;-12.770000;61.308594
77517;BME280;68414;53.946;27.634;2024-01-07T00:42:55;99509.859375;;;-12.760000;61.268555
77517;BME280;68414;53.946;27.634;2024-01-07T00:43:55;99511.203125;;;-12.720000;61.222656
77517;BME280;68414;53.946;27.634;2024-01-07T00:44:55;99515.429688;;;-12.710000;60.885742
77517;BME280;68414;53.946;27.634;2024-01-07T00:45:55;99521.281250;;;-12.690000;60.773438
77517;BME280;68414;53.946;27.634;2024-01-07T00:46:55;99517.335938;;;-12.730000;60.766602
77517;BME280;68414;53.946;27.634;2024-01-07T00:47:55;99523.187500;;;-12.710000;60.600586
77517;BME280;68414;53.946;27.634;2024-01-07T00:48:54;99523.742188;;;-12.770000;60.708984
77517;BME280;68414;53.946;27.634;2024-01-07T00:49:54;99524.562500;;;-12.760000;61.035156
77517;BME280;68414;53.946;27.634;2024-01-07T00:50:54;99529.593750;;;-12.750000;60.974609
77517;BME280;68414;53.946;27.634;2024-01-07T00:51:54;99526.054688;;;-12.740000;60.712891
77517;BME280;68414;53.946;27.634;2024-01-07T00:52:56;99527.007812;;;-12.750000;60.690430
77517;BME280;68414;53.946;27.634;2024-01-07T00:53:54;99534.093750;;;-12.770000;60.666992
77517;BME280;68414;53.946;27.634;2024-01-07T00:54:54;99527.007812;;;-12.750000;60.679688
77517;BME280;68414;53.946;27.634;2024-01-07T00:55:54;99528.914062;;;-12.770000;60.614258
77517;BME280;68414;53.946;27.634;2024-01-07T00:56:54;99532.453125;;;-12.780000;60.633789
77517;BME280;68414;53.946;27.634;2024-01-07T00:57:55;99529.906250;;;-12.880000;60.724609
77517;BME280;68414;53.946;27.634;2024-01-07T00:58:55;99535.218750;;;-12.890000;60.902344
77517;BME280;68414;53.946;27.634;2024-01-07T00:59:55;99531.140625;;;-12.920000;60.423828
77517;BME280;68414;53.946;27.634;2024-01-07T01:00:55;99533.046875;;;-12.940000;60.946289
77517;BME280;68414;53.946;27.634;2024-01-07T01:01:54;99542.710938;;;-12.960000;61.123047
77517;BME280;68414;53.946;27.634;2024-01-07T01:02:55;99536.578125;;;-12.950000;61.346680
77517;BME280;68414;53.946;27.634;2024-01-07T01:03:54;99540.125000;;;-12.960000;61.449219
77517;BME280;68414;53.946;27.634;2024-01-07T01:04:54;99544.203125;;;-12.930000;61.400391
77517;BME280;68414;53.946;27.634;2024-01-07T01:05:54;99539.718750;;;-12.910000;60.982422
77517;BME280;68414;53.946;27.634;2024-01-07T01:06:54;99543.656250;;;-12.870000;61.157227
77517;BME280;68414;53.946;27.634;2024-01-07T01:07:55;99543.382812;;;-12.840000;60.929688
77517;BME280;68414;53.946;27.634;2024-01-07T01:08:54;99537.906250;;;-12.810000;60.670898
77517;BME280;68414;53.946;27.634;2024-01-07T01:09:56;99545.531250;;;-12.790000;60.599609
77517;BME280;68414;53.946;27.634;2024-01-07T01:10:55;99543.898438;;;-12.800000;60.440430
77517;BME280;68414;53.946;27.634;2024-01-07T01:11:54;99544.343750;;;-12.850000;60.697266
77517;BME280;68414;53.946;27.634;2024-01-07T01:12:54;99543.796875;;;-12.890000;60.449219
77517;BME280;68414;53.946;27.634;2024-01-07T01:13:55;99544.609375;;;-12.980000;60.562500
77517;BME280;68414;53.946;27.634;2024-01-07T01:14:54;99544.484375;;;-12.960000;61.226562
77517;BME280;68414;53.946;27.634;2024-01-07T01:15:54;99551.015625;;;-12.920000;61.096680
77517;BME280;68414;53.946;27.634;2024-01-07T01:16:54;99550.734375;;;-12.890000;60.902344
77517;BME280;68414;53.946;27.634;2024-01-07T01:17:54;99543.656250;;;-12.870000;60.567383
77517;BME280;68414;53.946;27.634;2024-01-07T01:18:54;99538.625000;;;-12.890000;60.669922
77517;BME280;68414;53.946;27.634;2024-01-07T01:19:55;99540.937500;;;-12.850000;60.642578
77517;BME280;68414;53.946;27.634;2024-01-07T01:20:55;99545.429688;;;-12.880000;60.577148
77517;BME280;68414;53.946;27.634;2024-01-07T01:21:54;99544.609375;;;-12.880000;60.764648
77517;BME280;68414;53.946;27.634;2024-01-07T01:22:55;99547.468750;;;-12.910000;60.139648
77517;BME280;68414;53.946;27.634;2024-01-07T01:23:54;99551.015625;;;-12.920000;60.570312
77517;BME280;68414;53.946;27.634;2024-01-07T01:24:54;99547.062500;;;-12.960000;60.342773
77517;BME280;68414;53.946;27.634;2024-01-07T01:25:54;99546.382812;;;-12.980000;60.666016
77517;BME280;68414;53.946;27.634;2024-01-07T01:26:54;99552.375000;;;-12.980000;60.615234
77517;BME280;68414;53.946;27.634;2024-01-07T01:27:55;99553.187500;;;-12.970000;60.552734
77517;BME280;68414;53.946;27.634;2024-01-07T01:28:54;99560.000000;;;-12.960000;60.689453
77517;BME280;68414;53.946;27.634;2024-01-07T01:29:54;99554.140625;;;-12.980000;60.582031
77517;BME280;68414;53.946;27.634;2024-01-07T01:30:54;99560.539062;;;-13.020000;59.881836
77517;BME280;68414;53.946;27.634;2024-01-07T01:31:54;99554.820312;;;-13.060000;60.676758
77517;BME280;68414;53.946;27.634;2024-01-07T01:32:54;99564.078125;;;-13.030000;60.764648
77517;BME280;68414;53.946;27.634;2024-01-07T01:33:54;99566.664062;;;-13.030000;60.764648
77517;BME280;68414;53.946;27.634;2024-01-07T01:34:54;99558.906250;;;-13.030000;60.669922
77517;BME280;68414;53.946;27.634;2024-01-07T01:35:54;99562.171875;;;-13.010000;60.609375
77517;BME280;68414;53.946;27.634;2024-01-07T01:36:54;99565.437500;;;-12.990000;60.687500
77517;BME280;68414;53.946;27.634;2024-01-07T01:37:56;99571.148438;;;-13.050000;60.320312
77517;BME280;68414;53.946;27.634;2024-01-07T01:38:54;99571.562500;;;-13.100000;60.891602
77517;BME280;68414;53.946;27.634;2024-01-07T01:39:54;99574.960938;;;-13.090000;60.923828
77517;BME280;68414;53.946;27.634;2024-01-07T01:40:54;99573.054688;;;-13.070000;60.822266
77517;BME280;68414;53.946;27.634;2024-01-07T01:41:54;99569.515625;;;-13.060000;60.866211
77517;BME280;68414;53.946;27.634;2024-01-07T01:42:54;99569.234375;;;-13.130000;60.833984
77517;BME280;68414;53.946;27.634;2024-01-07T01:44:54;99566.796875;;;-13.140000;60.769531
77517;BME280;68414;53.946;27.634;2024-01-07T01:45:55;99561.953125;;;-13.170000;61.089844
77517;BME280;68414;53.946;27.634;2024-01-07T01:46:55;99574.710938;;;-13.160000;61.008789
77517;BME280;68414;53.946;27.634;2024-01-07T01:47:54;99568.156250;;;-13.100000;61.006836
77517;BME280;68414;53.946;27.634;2024-01-07T01:48:55;99571.421875;;;-13.080000;60.893555
77517;BME280;68414;53.946;27.634;2024-01-07T01:49:54;99569.546875;;;-13.160000;60.325195
77517;BME280;68414;53.946;27.634;2024-01-07T01:50:54;99570.656250;;;-13.180000;61.015625
77517;BME280;68414;53.946;27.634;2024-01-07T01:51:54;99567.125000;;;-13.170000;61.016602
77517;BME280;68414;53.946;27.634;2024-01-07T01:52:54;99577.468750;;;-13.170000;60.806641
77517;BME280;68414;53.946;27.634;2024-01-07T01:53:54;99576.179688;;;-13.130000;60.674805
77517;BME280;68414;53.946;27.634;2024-01-07T01:54:54;99574.546875;;;-13.140000;60.548828
77517;BME280;68414;53.946;27.634;2024-01-07T01:55:55;99578.281250;;;-13.170000;60.660156
77517;BME280;68414;53.946;27.634;2024-01-07T01:56:54;99572.828125;;;-13.240000;60.607422
77517;BME280;68414;53.946;27.634;2024-01-07T01:57:54;99578.265625;;;-13.270000;60.793945
77517;BME280;68414;53.946;27.634;2024-01-07T01:58:55;99578.812500;;;-13.230000;60.934570
77517;BME280;68414;53.946;27.634;2024-01-07T01:59:55;99579.632812;;;-13.230000;60.820312
77517;BME280;68414;53.946;27.634;2024-01-07T02:00:54;99581.265625;;;-13.220000;60.864258
77517;BME280;68414;53.946;27.634;2024-01-07T02:01:54;99574.195312;;;-13.190000;60.887695
77517;BME280;68414;53.946;27.634;2024-01-07T02:02:54;99576.367188;;;-13.250000;60.554688
77517;BME280;68414;53.946;27.634;2024-01-07T02:03:54;99577.718750;;;-13.300000;60.619141
77517;BME280;68414;53.946;27.634;2024-01-07T02:04:54;99576.898438;;;-13.310000;60.409180
77517;BME280;68414;53.946;27.634;2024-01-07T02:05:55;99573.359375;;;-13.300000;60.610352
77517;BME280;68414;53.946;27.634;2024-01-07T02:06:54;99568.195312;;;-13.300000;60.799805
77517;BME280;68414;53.946;27.634;2024-01-07T02:07:54;99575.953125;;;-13.300000;60.705078
77517;BME280;68414;53.946;27.634;2024-01-07T02:08:54;99572.546875;;;-13.300000;60.524414
77517;BME280;68414;53.946;27.634;2024-01-07T02:09:54;99568.468750;;;-13.330000;60.310547
77517;BME280;68414;53.946;27.634;2024-01-07T02:10:54;99578.796875;;;-13.330000;60.699219
77517;BME280;68414;53.946;27.634;2024-01-07T02:12:54;99573.750000;;;-13.440000;60.472656
77517;BME280;68414;53.946;27.634;2024-01-07T02:13:54;99579.179688;;;-13.470000;60.984375
77517;BME280;68414;53.946;27.634;2024-01-07T02:14:54;99575.906250;;;-13.490000;61.076172
77517;BME280;68414;53.946;27.634;2024-01-07T02:15:56;99576.046875;;;-13.500000;61.335938
77517;BME280;68414;53.946;27.634;2024-01-07T02:16:54;99581.210938;;;-13.500000;61.094727
77517;BME280;68414;53.946;27.634;2024-01-07T02:17:54;99578.500000;;;-13.490000;61.338867
77517;BME280;68414;53.946;27.634;2024-01-07T02:18:54;99578.234375;;;-13.460000;61.038086
77517;BME280;68414;53.946;27.634;2024-01-07T02:19:54;99579.046875;;;-13.450000;61.100586
77517;BME280;68414;53.946;27.634;2024-01-07T02:20:54;99590.203125;;;-13.450000;61.018555
77517;BME280;68414;53.946;27.634;2024-01-07T02:21:54;99581.500000;;;-13.440000;60.935547
77517;BME280;68414;53.946;27.634;2024-01-07T02:22:56;99587.625000;;;-13.540000;60.269531
77517;BME280;68414;53.946;27.634;2024-01-07T02:23:54;99588.703125;;;-13.570000;61.294922
77517;BME280;68414;53.946;27.634;2024-01-07T02:24:54;99582.328125;;;-13.530000;61.195312
77517;BME280;68414;53.946;27.634;2024-01-07T02:25:54;99582.421875;;;-13.640000;61.420898
77517;BME280;68414;53.946;27.634;2024-01-07T02:26:54;99583.109375;;;-13.620000;61.707031
77517;BME280;68414;53.946;27.634;2024-01-07T02:27:55;99588.015625;;;-13.590000;61.628906
77517;BME280;68414;53.946;27.634;2024-01-07T02:28:54;99584.617188;;;-13.600000;61.606445
77517;BME280;68414;53.946;27.634;2024-01-07T02:29:54;99590.335938;;;-13.560000;61.527344
77517;BME280;68414;53.946;27.634;2024-01-07T02:30:54;99575.515625;;;-13.540000;60.879883
77517;BME280;68414;53.946;27.634;2024-01-07T02:31:55;99584.062500;;;-13.630000;60.917969
77517;BME280;68414;53.946;27.634;2024-01-07T02:32:54;99584.617188;;;-13.600000;61.458984
77517;BME280;68414;53.946;27.634;2024-01-07T02:33:54;99586.804688;;;-13.550000;61.171875
77517;BME280;68414;53.946;27.634;2024-01-07T02:34:54;99582.843750;;;-13.490000;61.074219
77517;BME280;68414;53.946;27.634;2024-01-07T02:35:54;99588.695312;;;-13.470000;61.003906
77517;BME280;68414;53.946;27.634;2024-01-07T02:36:54;99585.296875;;;-13.480000;60.635742
77517;BME280;68414;53.946;27.634;2024-01-07T02:37:54;99586.250000;;;-13.490000;60.560547
77517;BME280;68414;53.946;27.634;2024-01-07T02:38:54;99584.476562;;;-13.480000;60.897461
77517;BME280;68414;53.946;27.634;2024-01-07T02:39:55;99585.296875;;;-13.480000;60.709961
77517;BME280;68414;53.946;27.634;2024-01-07T02:40:54;99590.468750;;;-13.480000;60.593750
77517;BME280;68414;53.946;27.634;2024-01-07T02:41:54;99590.468750;;;-13.480000;60.772461
77517;BME280;68414;53.946;27.634;2024-01-07T02:42:54;99588.140625;;;-13.510000;60.472656
77517;BME280;68414;53.946;27.634;2024-01-07T02:43:54;99596.710938;;;-13.500000;60.832031
77517;BME280;68414;53.946;27.634;2024-01-07T02:44:54;99587.859375;;;-13.670000;60.996094
77517;BME280;68414;53.946;27.634;2024-01-07T02:45:54;99586.351562;;;-13.700000;61.643555
77517;BME280;68414;53.946;27.634;2024-01-07T02:46:54;99586.640625;;;-13.630000;61.538086
77517;BME280;68414;53.946;27.634;2024-01-07T02:47:54;99598.609375;;;-13.620000;60.940430
77517;BME280;68414;53.946;27.634;2024-01-07T02:48:54;99592.500000;;;-13.610000;60.888672
77517;BME280;68414;53.946;27.634;2024-01-07T02:49:54;99588.804688;;;-13.680000;60.994141
77517;BME280;68414;53.946;27.634;2024-01-07T02:50:55;99590.437500;;;-13.670000;61.300781
77517;BME280;68414;53.946;27.634;2024-01-07T02:51:54;99592.335938;;;-13.690000;61.088867
77517;BME280;68414;53.946;27.634;2024-01-07T02:52:54;99591.812500;;;-13.630000;61.348633
77517;BME280;68414;53.946;27.634;2024-01-07T02:53:54;99591.812500;;;-13.630000;60.991211
77517;BME280;68414;53.946;27.634;2024-01-07T02:54:54;99595.078125;;;-13.610000;61.088867
77517;BME280;68414;53.946;27.634;2024-01-07T02:55:54;99596.453125;;;-13.570000;61.200195
77517;BME280;68414;53.946;27.634;2024-01-07T02:56:54;99590.468750;;;-13.580000;60.915039
77517;BME280;68414;53.946;27.634;2024-01-07T02:57:54;99593.187500;;;-13.590000;60.945312
77517;BME280;68414;53.946;27.634;2024-01-07T02:58:54;99601.031250;;;-13.700000;60.675781
77517;BME280;68414;53.946;27.634;2024-01-07T02:59:54;99608.875000;;;-13.810000;61.279297
77517;BME280;68414;53.946;27.634;2024-01-07T03:00:54;99604.656250;;;-13.820000;61.457031
77517;BME280;68414;53.946;27.634;2024-01-07T03:01:54;99604.781250;;;-13.840000;61.465820
77517;BME280;68414;53.946;27.634;2024-01-07T03:02:55;99605.890625;;;-13.860000;61.776367
77517;BME280;68414;53.946;27.634;2024-01-07T03:03:54;99608.054688;;;-13.820000;61.688477
77517;BME280;68414;53.946;27.634;2024-01-07T03:04:54;99606.031250;;;-13.780000;61.525391
77517;BME280;68414;53.946;27.634;2024-01-07T03:05:54;99611.625000;;;-13.730000;61.679688
77517;BME280;68414;53.946;27.634;2024-01-07T03:06:54;99604.296875;;;-13.680000;61.403320
77517;BME280;68414;53.946;27.634;2024-01-07T03:07:54;99604.039062;;;-13.650000;61.114258
77517;BME280;68414;53.946;27.634;2024-01-07T03:08:54;99612.218750;;;-13.600000;61.173828
77517;BME280;68414;53.946;27.634;2024-01-07T03:09:54;99609.375000;;;-13.570000;60.969727
77517;BME280;68414;53.946;27.634;2024-01-07T03:10:54;99611.687500;;;-13.540000;60.837891
77517;BME280;68414;53.946;27.634;2024-01-07T03:11:54;99613.585938;;;-13.560000;60.529297
77517;BME280;68414;53.946;27.634;2024-01-07T03:12:54;99617.375000;;;-13.600000;60.270508
77517;BME280;68414;53.946;27.634;2024-01-07T03:13:55;99618.593750;;;-13.640000;60.464844
77517;BME280;68414;53.946;27.634;2024-01-07T03:14:54;99614.375000;;;-13.650000;60.431641
77517;BME280;68414;53.946;27.634;2024-01-07T03:15:54;99617.171875;;;-13.870000;60.975586
77517;BME280;68414;53.946;27.634;2024-01-07T03:16:54;99619.875000;;;-13.890000;60.869141
77517;BME280;68414;53.946;27.634;2024-01-07T03:17:54;99616.609375;;;-13.910000;61.359375
77517;BME280;68414;53.946;27.634;2024-01-07T03:18:54;99618.625000;;;-13.950000;61.344727
77517;BME280;68414;53.946;27.634;2024-01-07T03:19:54;99616.734375;;;-13.930000;61.284180
77517;BME280;68414;53.946;27.634;2024-01-07T03:20:54;99620.781250;;;-14.000000;61.410156
77517;BME280;68414;53.946;27.634;2024-01-07T03:21:54;99615.101562;;;-13.940000;61.524414
77517;BME280;68414;53.946;27.634;2024-01-07T03:22:54;99611.710938;;;-13.840000;61.412109
77517;BME280;68414;53.946;27.634;2024-01-07T03:23:54;99613.781250;;;-13.780000;60.978516
77517;BME280;68414;53.946;27.634;2024-01-07T03:24:54;99611.750000;;;-13.750000;60.900391
77517;BME280;68414;53.946;27.634;2024-01-07T03:25:54;99616.359375;;;-13.780000;60.211914
77517;BME280;68414;53.946;27.634;2024-01-07T03:26:54;99618.937500;;;-13.780000;60.758789
77517;BME280;68414;53.946;27.634;2024-01-07T03:27:54;99628.710938;;;-13.820000;60.848633
77517;BME280;68414;53.946;27.634;2024-01-07T03:28:54;99621.906250;;;-13.830000;60.709961
77517;BME280;68414;53.946;27.634;2024-01-07T03:29:54;99625.187500;;;-13.810000;60.733398
77517;BME280;68414;53.946;27.634;2024-01-07T03:30:54;99622.218750;;;-13.760000;60.478516
77517;BME280;68414;53.946;27.634;2024-01-07T03:31:54;99622.343750;;;-13.780000;60.455078
77517;BME280;68414;53.946;27.634;2024-01-07T03:32:54;99618.687500;;;-13.750000;60.490234
77517;BME280;68414;53.946;27.634;2024-01-07T03:33:54;99618.554688;;;-13.740000;60.177734
77517;BME280;68414;53.946;27.634;2024-01-07T03:34:54;99618.000000;;;-13.770000;60.307617
77517;BME280;68414;53.946;27.634;2024-01-07T03:35:54;99618.937500;;;-13.780000;60.370117
77517;BME280;68414;53.946;27.634;2024-01-07T03:36:54;99620.578125;;;-13.770000;60.055664
77517;BME280;68414;53.946;27.634;2024-01-07T03:37:54;99618.640625;;;-13.850000;59.699219
77517;BME280;68414;53.946;27.634;2024-01-07T03:38:54;99620.578125;;;-13.770000;60.087891
77517;BME280;68414;53.946;27.634;2024-01-07T03:39:54;99615.281250;;;-13.760000;60.089844
77517;BME280;68414;53.946;27.634;2024-01-07T03:40:54;99614.039062;;;-13.810000;59.326172
77517;BME280;68414;53.946;27.634;2024-01-07T03:41:55;99616.875000;;;-13.840000;60.109375
77517;BME280;68414;53.946;27.634;2024-01-07T03:42:54;99618.382812;;;-13.820000;60.208008
77517;BME280;68414;53.946;27.634;2024-01-07T03:43:54;99617.828125;;;-13.850000;59.875977
77517;BME280;68414;53.946;27.634;2024-01-07T03:44:54;99615.101562;;;-13.940000;60.138672
77517;BME280;68414;53.946;27.634;2024-01-07T03:45:54;99613.718750;;;-13.980000;59.953125
77517;BME280;68414;53.946;27.634;2024-01-07T03:46:54;99614.843750;;;-13.910000;60.352539
77517;BME280;68414;53.946;27.634;2024-01-07T03:47:54;99612.648438;;;-13.950000;60.398438
77517;BME280;68414;53.946;27.634;2024-01-07T03:48:54;99620.828125;;;-13.900000;60.467773
77517;BME280;68414;53.946;27.634;2024-01-07T03:49:54;99618.515625;;;-13.830000;60.341797
77517;BME280;68414;53.946;27.634;2024-01-07T03:50:54;99612.140625;;;-13.790000;60.168945
77517;BME280;68414;53.946;27.634;2024-01-07T03:51:54;99618.937500;;;-13.780000;59.540039
77517;BME280;68414;53.946;27.634;2024-01-07T03:52:54;99612.406250;;;-13.820000;59.703125
77517;BME280;68414;53.946;27.634;2024-01-07T03:53:54;99619.203125;;;-13.810000;59.851562
77517;BME280;68414;53.946;27.634;2024-01-07T03:54:55;99610.507812;;;-13.800000;59.810547
77517;BME280;68414;53.946;27.634;2024-01-07T03:55:54;99614.039062;;;-13.810000;59.672852
77517;BME280;68414;53.946;27.634;2024-01-07T03:56:54;99610.250000;;;-13.770000;60.003906
77517;BME280;68414;53.946;27.634;2024-01-07T03:57:54;99607.921875;;;-13.800000;59.453125
77517;BME280;68414;53.946;27.634;2024-01-07T03:58:54;99616.484375;;;-13.800000;59.906250
77517;BME280;68414;53.946;27.634;2024-01-07T03:59:54;99614.296875;;;-13.840000;59.395508
77517;BME280;68414;53.946;27.634;2024-01-07T04:00:54;99621.382812;;;-13.860000;59.907227
77517;BME280;68414;53.946;27.634;2024-01-07T04:01:55;99609.937500;;;-13.940000;59.917969
77517;BME280;68414;53.946;27.634;2024-01-07T04:02:54;99623.234375;;;-13.980000;59.899414
77517;BME280;68414;53.946;27.634;2024-01-07T04:03:54;99622.109375;;;-14.050000;60.215820
77517;BME280;68414;53.946;27.634;2024-01-07T04:04:54;99618.703125;;;-14.060000;60.403320
77517;BME280;68414;53.946;27.634;2024-01-07T04:05:54;99611.656250;;;-14.040000;60.375977
77517;BME280;68414;53.946;27.634;2024-01-07T04:06:54;99614.921875;;;-14.020000;60.262695
77517;BME280;68414;53.946;27.634;2024-01-07T04:07:54;99615.742188;;;-14.010000;60.306641
77517;BME280;68414;53.946;27.634;2024-01-07T04:08:54;99615.875000;;;-14.030000;60.197266
77517;BME280;68414;53.946;27.634;2024-01-07T04:09:54;99616.125000;;;-14.060000;60.487305
77517;BME280;68414;53.946;27.634;2024-01-07T04:10:54;99614.492188;;;-14.070000;60.444336
77517;BME280;68414;53.946;27.634;2024-01-07T04:11:54;99616.382812;;;-14.090000;60.441406
77517;BME280;68414;53.946;27.634;2024-01-07T04:12:54;99626.195312;;;-14.030000;60.721680
77517;BME280;68414;53.946;27.634;2024-01-07T04:13:54;99623.179688;;;-14.080000;60.442383
77517;BME280;68414;53.946;27.634;2024-01-07T04:14:54;99617.765625;;;-14.050000;60.625000
77517;BME280;68414;53.946;27.634;2024-01-07T04:15:54;99625.765625;;;-14.080000;60.421875
77517;BME280;68414;53.946;27.634;2024-01-07T04:16:54;99629.546875;;;-14.120000;60.521484
77517;BME280;68414;53.946;27.634;2024-01-07T04:17:54;99628.156250;;;-14.160000;60.829102
77517;BME280;68414;53.946;27.634;2024-01-07T04:18:54;99634.140625;;;-14.150000;60.682617
77517;BME280;68414;53.946;27.634;2024-01-07T04:19:54;99632.218750;;;-14.230000;60.703125
77517;BME280;68414;53.946;27.634;2024-01-07T04:20:56;99630.460938;;;-14.220000;61.050781
77517;BME280;68414;53.946;27.634;2024-01-07T04:21:54;99638.015625;;;-14.310000;60.765625
77517;BME280;68414;53.946;27.634;2024-01-07T04:22:54;99630.968750;;;-14.290000;61.062500
77517;BME280;68414;53.946;27.634;2024-01-07T04:23:54;99632.859375;;;-14.310000;61.038086
77517;BME280;68414;53.946;27.634;2024-01-07T04:24:54;99637.765625;;;-14.280000;60.791016
77517;BME280;68414;53.946;27.634;2024-01-07T04:25:54;99637.453125;;;-14.340000;60.750000
77517;BME280;68414;53.946;27.634;2024-01-07T04:26:54;99628.328125;;;-14.380000;61.152344
77517;BME280;68414;53.946;27.634;2024-01-07T04:27:54;99634.171875;;;-14.360000;61.072266
77517;BME280;68414;53.946;27.634;2024-01-07T04:28:54;99635.812500;;;-14.350000;61.094727
77517;BME280;68414;53.946;27.634;2024-01-07T04:29:56;99642.859375;;;-14.370000;61.228516